OOCL Nagoya — VRFX8 — position and weather

sailwx.info

Track history (hours):
 
Tides and Currents Weather Stations Pressure Air Temp Water Temp Dewpoint Dewpoint Depression Visibility Wind Speed Wind Dir Waves Ship Positions

OOCL Nagoya

Last reported at 2017-Jul-24 23:40 UTC. Time now 2017-Jul-28 10:46 UTC.
Position N 22°19' E 114°07'.

Length 261 m; draft 11.4 m.

Type: Cargo ship. MMSI: 477627900.

Date/timePositionNaut miles runAvg speedWind from/ knotsBaromVisibWave heightAir tempDewpointWater temp
2017-Jul-24 23:40N 22°19' E 114°07'314 9.9
2017-Jul-23 16:04N 22°30' E 119°47'115.0
2017-Jul-23 16:00N 22°30' E 119°48'715.0
2017-Jul-23 15:30N 22°31' E 119°55'815.1
2017-Jul-23 15:01N 22°32' E 120°04'815.2
2017-Jul-23 14:31N 22°33' E 120°12'712.9
2017-Jul-23 14:00N 22°33' E 120°19'1 2.4
2017-Jul-23 13:30N 22°34' E 120°18'0 0.3
2017-Jul-23 13:00N 22°34' E 120°18'0 0.0
2017-Jul-23 12:30N 22°34' E 120°18'0 0.0
2017-Jul-23 12:00N 22°34' E 120°18'0 0.0
2017-Jul-23 11:24N 22°34' E 120°18'0 0.0
2017-Jul-23 11:00N 22°34' E 120°18'0 0.0
2017-Jul-23 10:30N 22°34' E 120°18'0 0.0
2017-Jul-23 10:00N 22°34' E 120°18'0 0.0
2017-Jul-23 09:30N 22°34' E 120°18'0 0.0
2017-Jul-23 09:00N 22°34' E 120°18'0 0.0
2017-Jul-23 08:30N 22°34' E 120°18'0 0.0
2017-Jul-23 07:51N 22°34' E 120°18'0 0.0
2017-Jul-23 07:30N 22°34' E 120°18'0 0.0
2017-Jul-23 06:54N 22°34' E 120°18'0 0.0
2017-Jul-23 06:27N 22°34' E 120°18'0 0.0
2017-Jul-23 06:00N 22°34' E 120°18'0 0.0
2017-Jul-23 05:30N 22°34' E 120°18'0 0.0
2017-Jul-23 05:00N 22°34' E 120°18'0 0.0
2017-Jul-23 04:30N 22°34' E 120°18'0 0.0
2017-Jul-23 04:00N 22°34' E 120°18'0 0.0
2017-Jul-23 03:15N 22°34' E 120°18'0 0.0
2017-Jul-23 03:00N 22°34' E 120°18'1 2.7
2017-Jul-23 02:30N 22°33' E 120°19'4 7.3
2017-Jul-23 02:00N 22°33' E 120°15'4 7.6
2017-Jul-23 01:31N 22°34' E 120°11'611.4
2017-Jul-23 01:00N 22°39' E 120°08'612.7
2017-Jul-23 00:30N 22°45' E 120°06'714.6
2017-Jul-23 00:00N 22°51' E 120°02'  
2017-Jul-20 12:25N 33°55' E 134°55'819.6
2017-Jul-20 12:00N 34°03' E 134°56'919.0
2017-Jul-20 11:30N 34°12' E 134°58'815.0
2017-Jul-20 10:59N 34°20' E 134°59'817.2
2017-Jul-20 10:30N 34°27' E 135°04'918.6
2017-Jul-20 10:00N 34°33' E 135°12'713.3
2017-Jul-20 09:30N 34°39' E 135°15'1 1.2
2017-Jul-20 08:57N 34°40' E 135°14'0 0.1
2017-Jul-20 08:21N 34°40' E 135°14'0 0.0
2017-Jul-20 07:57N 34°40' E 135°14'0 0.0
2017-Jul-20 07:27N 34°40' E 135°14'0 0.0
2017-Jul-20 06:45N 34°40' E 135°14'0 0.0
2017-Jul-20 06:27N 34°40' E 135°14'0 0.0
2017-Jul-20 05:57N 34°40' E 135°14'0 0.1
2017-Jul-20 05:27N 34°40' E 135°14'0 0.0
2017-Jul-20 04:57N 34°40' E 135°14'0 0.1
2017-Jul-20 04:21N 34°40' E 135°14'0 0.0
2017-Jul-20 03:57N 34°40' E 135°14'0 0.0
2017-Jul-20 03:15N 34°40' E 135°14'0 0.0
2017-Jul-20 02:51N 34°40' E 135°14'0 0.0
2017-Jul-20 02:21N 34°40' E 135°14'0 0.0
2017-Jul-20 01:57N 34°40' E 135°14'0 0.1
2017-Jul-20 01:27N 34°40' E 135°14'0 0.1
2017-Jul-20 00:57N 34°40' E 135°14'0 0.1
2017-Jul-20 00:21N 34°40' E 135°14'0 0.0
2017-Jul-19 23:57N 34°40' E 135°14'0 0.0
2017-Jul-19 23:27N 34°40' E 135°14'0 0.1
2017-Jul-19 22:58N 34°40' E 135°15'1 2.9
2017-Jul-19 22:31N 34°39' E 135°16'5 9.5
2017-Jul-19 22:00N 34°34' E 135°17'815.9
2017-Jul-19 21:30N 34°28' E 135°10'919.1
2017-Jul-19 21:00N 34°21' E 135°02'816.9
2017-Jul-19 20:30N 34°13' E 134°60'612.0
2017-Jul-19 20:01N 34°07' E 134°60'612.3
2017-Jul-19 19:30N 34°01' E 134°60'612.0
2017-Jul-19 19:00N 33°55' E 135°00'218 5.1
2017-Jul-18 00:02N 34°49' E 139°15'015.4
2017-Jul-18 00:00N 34°49' E 139°16'815.1
2017-Jul-17 23:30N 34°55' E 139°22'815.2
2017-Jul-17 23:00N 34°59' E 139°30'714.8
2017-Jul-17 22:30N 35°03' E 139°37'815.4
2017-Jul-17 22:00N 35°08' E 139°44'713.3
2017-Jul-17 21:30N 35°15' E 139°46'612.3
2017-Jul-17 21:01N 35°20' E 139°42'815.1
2017-Jul-17 20:31N 35°27' E 139°47'714.2
2017-Jul-17 20:00N 35°33' E 139°50'4 7.6
2017-Jul-17 19:31N 35°36' E 139°47'0 0.4
2017-Jul-17 19:00N 35°36' E 139°47'0 0.0
2017-Jul-17 18:27N 35°36' E 139°47'0 0.0
2017-Jul-17 18:00N 35°36' E 139°47'0 0.0
2017-Jul-17 17:30N 35°36' E 139°47'0 0.0
2017-Jul-17 17:00N 35°36' E 139°47'0 0.0
2017-Jul-17 16:30N 35°36' E 139°47'0 0.0
2017-Jul-17 15:57N 35°36' E 139°47'0 0.0
2017-Jul-17 15:30N 35°36' E 139°47'0 0.0
2017-Jul-17 15:00N 35°36' E 139°47'0 0.0
2017-Jul-17 14:27N 35°36' E 139°47'0 0.0
2017-Jul-17 14:00N 35°36' E 139°47'0 0.0
2017-Jul-17 13:30N 35°36' E 139°47'0 0.0
2017-Jul-17 13:00N 35°36' E 139°47'0 0.0
2017-Jul-17 12:30N 35°36' E 139°47'0 0.0
2017-Jul-17 12:00N 35°36' E 139°47'0 0.0
2017-Jul-17 11:30N 35°36' E 139°47'0 0.0
2017-Jul-17 11:00N 35°36' E 139°47'1 1.1
2017-Jul-17 10:30N 35°36' E 139°47'4 7.3
2017-Jul-17 10:00N 35°33' E 139°51'5 9.3
2017-Jul-17 09:30N 35°29' E 139°51'815.2
2017-Jul-17 09:00N 35°23' E 139°46'611.3
2017-Jul-17 08:30N 35°17' E 139°46'611.5
2017-Jul-17 08:01N 35°11' E 139°47'4 7.9
2017-Jul-17 07:30N 35°07' E 139°46'510.1
2017-Jul-17 07:00N 35°03' E 139°43'611.9
2017-Jul-17 06:30N 34°60' E 139°37'612.6
2017-Jul-17 06:01N 34°56' E 139°30'713.3
2017-Jul-17 05:28N 34°53' E 139°23'  
Track history (hours):
 
Tides and Currents Weather Stations Pressure Air Temp Water Temp Dewpoint Dewpoint Depression Visibility Wind Speed Wind Dir Waves Ship Positions

OOCL Nagoya

Last reported at 2017-Jul-24 23:40 UTC. Time now 2017-Jul-28 10:46 UTC.
Position N 22°19' E 114°07'.

Length 261 m; draft 11.4 m.

Type: Cargo ship. MMSI: 477627900.

Date/timePositionNaut miles runAvg speedWind from/ knotsBaromVisibWave heightAir tempDewpointWater temp
2017-Jul-24 23:40N 22°19' E 114°07'314 9.9
2017-Jul-23 16:04N 22°30' E 119°47'115.0
2017-Jul-23 16:00N 22°30' E 119°48'715.0
2017-Jul-23 15:30N 22°31' E 119°55'815.1
2017-Jul-23 15:01N 22°32' E 120°04'815.2
2017-Jul-23 14:31N 22°33' E 120°12'712.9
2017-Jul-23 14:00N 22°33' E 120°19'1 2.4
2017-Jul-23 13:30N 22°34' E 120°18'0 0.3
2017-Jul-23 13:00N 22°34' E 120°18'0 0.0
2017-Jul-23 12:30N 22°34' E 120°18'0 0.0
2017-Jul-23 12:00N 22°34' E 120°18'0 0.0
2017-Jul-23 11:24N 22°34' E 120°18'0 0.0
2017-Jul-23 11:00N 22°34' E 120°18'0 0.0
2017-Jul-23 10:30N 22°34' E 120°18'0 0.0
2017-Jul-23 10:00N 22°34' E 120°18'0 0.0
2017-Jul-23 09:30N 22°34' E 120°18'0 0.0
2017-Jul-23 09:00N 22°34' E 120°18'0 0.0
2017-Jul-23 08:30N 22°34' E 120°18'0 0.0
2017-Jul-23 07:51N 22°34' E 120°18'0 0.0
2017-Jul-23 07:30N 22°34' E 120°18'0 0.0
2017-Jul-23 06:54N 22°34' E 120°18'0 0.0
2017-Jul-23 06:27N 22°34' E 120°18'0 0.0
2017-Jul-23 06:00N 22°34' E 120°18'0 0.0
2017-Jul-23 05:30N 22°34' E 120°18'0 0.0
2017-Jul-23 05:00N 22°34' E 120°18'0 0.0
2017-Jul-23 04:30N 22°34' E 120°18'0 0.0
2017-Jul-23 04:00N 22°34' E 120°18'0 0.0
2017-Jul-23 03:15N 22°34' E 120°18'0 0.0
2017-Jul-23 03:00N 22°34' E 120°18'1 2.7
2017-Jul-23 02:30N 22°33' E 120°19'4 7.3
2017-Jul-23 02:00N 22°33' E 120°15'4 7.6
2017-Jul-23 01:31N 22°34' E 120°11'611.4
2017-Jul-23 01:00N 22°39' E 120°08'612.7
2017-Jul-23 00:30N 22°45' E 120°06'714.6
2017-Jul-23 00:00N 22°51' E 120°02'  
2017-Jul-20 12:25N 33°55' E 134°55'819.6
2017-Jul-20 12:00N 34°03' E 134°56'919.0
2017-Jul-20 11:30N 34°12' E 134°58'815.0
2017-Jul-20 10:59N 34°20' E 134°59'817.2
2017-Jul-20 10:30N 34°27' E 135°04'918.6
2017-Jul-20 10:00N 34°33' E 135°12'713.3
2017-Jul-20 09:30N 34°39' E 135°15'1 1.2
2017-Jul-20 08:57N 34°40' E 135°14'0 0.1
2017-Jul-20 08:21N 34°40' E 135°14'0 0.0
2017-Jul-20 07:57N 34°40' E 135°14'0 0.0
2017-Jul-20 07:27N 34°40' E 135°14'0 0.0
2017-Jul-20 06:45N 34°40' E 135°14'0 0.0
2017-Jul-20 06:27N 34°40' E 135°14'0 0.0
2017-Jul-20 05:57N 34°40' E 135°14'0 0.1
2017-Jul-20 05:27N 34°40' E 135°14'0 0.0
2017-Jul-20 04:57N 34°40' E 135°14'0 0.1
2017-Jul-20 04:21N 34°40' E 135°14'0 0.0
2017-Jul-20 03:57N 34°40' E 135°14'0 0.0
2017-Jul-20 03:15N 34°40' E 135°14'0 0.0
2017-Jul-20 02:51N 34°40' E 135°14'0 0.0
2017-Jul-20 02:21N 34°40' E 135°14'0 0.0
2017-Jul-20 01:57N 34°40' E 135°14'0 0.1
2017-Jul-20 01:27N 34°40' E 135°14'0 0.1
2017-Jul-20 00:57N 34°40' E 135°14'0 0.1
2017-Jul-20 00:21N 34°40' E 135°14'0 0.0
2017-Jul-19 23:57N 34°40' E 135°14'0 0.0
2017-Jul-19 23:27N 34°40' E 135°14'0 0.1
2017-Jul-19 22:58N 34°40' E 135°15'1 2.9
2017-Jul-19 22:31N 34°39' E 135°16'5 9.5
2017-Jul-19 22:00N 34°34' E 135°17'815.9
2017-Jul-19 21:30N 34°28' E 135°10'919.1
2017-Jul-19 21:00N 34°21' E 135°02'816.9
2017-Jul-19 20:30N 34°13' E 134°60'612.0
2017-Jul-19 20:01N 34°07' E 134°60'612.3
2017-Jul-19 19:30N 34°01' E 134°60'612.0
2017-Jul-19 19:00N 33°55' E 135°00'218 5.1
2017-Jul-18 00:02N 34°49' E 139°15'015.4
2017-Jul-18 00:00N 34°49' E 139°16'815.1
2017-Jul-17 23:30N 34°55' E 139°22'815.2
2017-Jul-17 23:00N 34°59' E 139°30'714.8
2017-Jul-17 22:30N 35°03' E 139°37'815.4
2017-Jul-17 22:00N 35°08' E 139°44'713.3
2017-Jul-17 21:30N 35°15' E 139°46'612.3
2017-Jul-17 21:01N 35°20' E 139°42'815.1
2017-Jul-17 20:31N 35°27' E 139°47'714.2
2017-Jul-17 20:00N 35°33' E 139°50'4 7.6
2017-Jul-17 19:31N 35°36' E 139°47'0 0.4
2017-Jul-17 19:00N 35°36' E 139°47'0 0.0
2017-Jul-17 18:27N 35°36' E 139°47'0 0.0
2017-Jul-17 18:00N 35°36' E 139°47'0 0.0
2017-Jul-17 17:30N 35°36' E 139°47'0 0.0
2017-Jul-17 17:00N 35°36' E 139°47'0 0.0
2017-Jul-17 16:30N 35°36' E 139°47'0 0.0
2017-Jul-17 15:57N 35°36' E 139°47'0 0.0
2017-Jul-17 15:30N 35°36' E 139°47'0 0.0
2017-Jul-17 15:00N 35°36' E 139°47'0 0.0
2017-Jul-17 14:27N 35°36' E 139°47'0 0.0
2017-Jul-17 14:00N 35°36' E 139°47'0 0.0
2017-Jul-17 13:30N 35°36' E 139°47'0 0.0
2017-Jul-17 13:00N 35°36' E 139°47'0 0.0
2017-Jul-17 12:30N 35°36' E 139°47'0 0.0
2017-Jul-17 12:00N 35°36' E 139°47'0 0.0
2017-Jul-17 11:30N 35°36' E 139°47'0 0.0
2017-Jul-17 11:00N 35°36' E 139°47'1 1.1
2017-Jul-17 10:30N 35°36' E 139°47'4 7.3
2017-Jul-17 10:00N 35°33' E 139°51'5 9.3
2017-Jul-17 09:30N 35°29' E 139°51'815.2
2017-Jul-17 09:00N 35°23' E 139°46'611.3
2017-Jul-17 08:30N 35°17' E 139°46'611.5
2017-Jul-17 08:01N 35°11' E 139°47'4 7.9
2017-Jul-17 07:30N 35°07' E 139°46'510.1
2017-Jul-17 07:00N 35°03' E 139°43'611.9
2017-Jul-17 06:30N 34°60' E 139°37'612.6
2017-Jul-17 06:01N 34°56' E 139°30'713.3
2017-Jul-17 05:28N 34°53' E 139°23'  

Dump ship's entire track history